Pedigo, Texas
Current Conditions -  °F | °C
As of 12:15 PM on Friday 28 Nov 2014 (Local Time) from KJAS Reporting Station
Clear Clear  
Wind Chill: 63°   Ceiling: Unl
Heat Index: 63°   Visibility: 10mi
Dew Point: 47°   Wind: 10mph
Humidity: 56%   Direction: 200°SSW
Pressure: 30.31"   Gusts: NA
Location:  30.7643°N, 94.4448°W
Report Text: KJAS 281815Z AUTO 20009KT 10SM CLR 17/08 A3031 RMK AO2 T01710083
Loading
Personal Weather Stations






























Interactive Weather Map New forecast layout! Learn more

10-Day Weather Forecast

Advertisements
Track Severe Weather on mobile